Time;durP1;ratioP1;P1;durP2;ratioP2;P2;SDS_P1;SDS_P2;PMS_P1;PMS_P2;Temp;Humidity;BMP_temperature;BMP_pressure;BME280_temperature;BME280_humidity;BME280_pressure;Samples;Min_cycle;Max_cycle;Signal;HPM_P1;HPM_P2
2023/02/05 00:01:54;;;;;;;32.75;15.70;;;;;;;;;;5017864;28;20182;-74
2023/02/05 00:04:20;;;;;;;34.57;15.20;;;;;;;;;;5017567;28;20193;-74
2023/02/05 00:06:46;;;;;;;37.67;14.57;;;;;;;;;;5017774;28;20528;-74
2023/02/05 00:09:12;;;;;;;32.47;14.15;;;;;;;;;;5017227;28;20409;-74
2023/02/05 00:11:38;;;;;;;34.95;13.52;;;;;;;;;;5017305;28;20211;-74
2023/02/05 00:14:04;;;;;;;41.97;14.13;;;;;;;;;;5016218;28;20628;-74
2023/02/05 00:16:30;;;;;;;30.58;14.70;;;;;;;;;;5017591;28;20517;-74
2023/02/05 00:18:56;;;;;;;27.27;12.85;;;;;;;;;;5017353;28;20188;-74
2023/02/05 00:21:22;;;;;;;36.70;13.35;;;;;;;;;;5016988;28;20177;-74
2023/02/05 00:23:49;;;;;;;39.60;20.08;;;;;;;;;;5016419;28;20654;-74
2023/02/05 00:26:15;;;;;;;30.10;15.30;;;;;;;;;;5016908;28;20176;-74
2023/02/05 00:28:41;;;;;;;34.10;16.63;;;;;;;;;;5017307;28;20194;-74
2023/02/05 00:31:09;;;;;;;38.17;16.03;;;;;;;;;;5017058;28;20469;-74
2023/02/05 00:33:35;;;;;;;34.47;15.38;;;;;;;;;;5017155;28;20402;-74
2023/02/05 00:36:01;;;;;;;27.50;14.98;;;;;;;;;;5017192;28;20205;-74
2023/02/05 00:38:27;;;;;;;30.45;16.67;;;;;;;;;;5015887;28;20656;-74
2023/02/05 00:40:53;;;;;;;33.53;17.60;;;;;;;;;;5015930;28;20171;-74
2023/02/05 00:43:19;;;;;;;46.57;19.17;;;;;;;;;;5016537;28;20481;-74
2023/02/05 00:45:45;;;;;;;28.00;16.80;;;;;;;;;;5016400;28;20875;-74
2023/02/05 00:48:11;;;;;;;27.77;16.88;;;;;;;;;;5016910;28;20406;-75
2023/02/05 00:50:37;;;;;;;43.00;17.67;;;;;;;;;;5016567;28;20592;-74
2023/02/05 00:53:04;;;;;;;35.42;17.90;;;;;;;;;;5016666;28;20420;-74
2023/02/05 00:55:30;;;;;;;37.20;17.00;;;;;;;;;;5015537;28;20714;-74
2023/02/05 00:57:56;;;;;;;33.13;15.00;;;;;;;;;;5016555;28;20259;-74
2023/02/05 01:00:22;;;;;;;41.78;14.77;;;;;;;;;;5016726;28;20174;-74
2023/02/05 01:02:48;;;;;;;30.60;13.48;;;;;;;;;;5016747;28;20198;-74
2023/02/05 01:05:14;;;;;;;38.27;13.87;;;;;;;;;;5016567;28;20175;-74
2023/02/05 01:07:40;;;;;;;40.38;15.43;;;;;;;;;;5016110;28;20781;-74
2023/02/05 01:10:06;;;;;;;42.90;15.77;;;;;;;;;;5016916;28;20181;-74
2023/02/05 01:12:33;;;;;;;46.40;16.35;;;;;;;;;;5016701;28;20206;-74
2023/02/05 01:14:59;;;;;;;44.45;16.25;;;;;;;;;;5016769;28;20172;-74
2023/02/05 01:17:25;;;;;;;49.35;16.90;;;;;;;;;;5016436;28;20523;-74
2023/02/05 01:19:51;;;;;;;35.45;16.95;;;;;;;;;;5016651;28;20593;-74
2023/02/05 01:22:17;;;;;;;44.05;16.42;;;;;;;;;;5015740;28;20197;-75
2023/02/05 01:24:43;;;;;;;36.20;15.33;;;;;;;;;;5019404;28;20233;-75
2023/02/05 01:27:09;;;;;;;31.67;15.40;;;;;;;;;;5020555;28;20414;-78
2023/02/05 01:29:35;;;;;;;38.55;16.75;;;;;;;;;;5020471;28;20409;-74
2023/02/05 01:32:01;;;;;;;34.77;16.27;;;;;;;;;;5019374;28;20207;-74
2023/02/05 01:34:27;;;;;;;37.97;17.75;;;;;;;;;;5019954;28;20409;-74
2023/02/05 01:36:53;;;;;;;38.00;17.87;;;;;;;;;;5020418;28;20202;-74
2023/02/05 01:39:19;;;;;;;56.90;19.73;;;;;;;;;;5019571;28;20417;-74
2023/02/05 01:41:45;;;;;;;35.50;16.27;;;;;;;;;;5019032;28;20430;-75
2023/02/05 01:44:23;;;;;;;37.22;18.23;;;;;;;;;;5019044;28;20481;-75
2023/02/05 01:46:49;;;;;;;46.90;18.40;;;;;;;;;;5020005;28;20199;-74
2023/02/05 01:49:31;;;;;;;29.40;17.50;;;;;;;;;;5019662;28;20183;-74
2023/02/05 01:51:59;;;;;;;36.17;17.17;;;;;;;;;;5020104;28;20205;-74
2023/02/05 01:54:27;;;;;;;37.92;17.77;;;;;;;;;;5020405;28;20237;-74
2023/02/05 01:56:54;;;;;;;37.05;18.02;;;;;;;;;;5019791;28;20251;-74
2023/02/05 01:59:26;;;;;;;31.48;17.95;;;;;;;;;;5020095;28;20190;-75
2023/02/05 02:01:53;;;;;;;43.45;19.38;;;;;;;;;;5019503;28;20214;-74
2023/02/05 02:04:39;;;;;;;36.15;17.25;;;;;;;;;;5020500;28;20564;-75
2023/02/05 02:07:06;;;;;;;47.22;19.42;;;;;;;;;;5019904;28;20638;-74
2023/02/05 02:09:32;;;;;;;37.38;17.67;;;;;;;;;;5019471;28;20641;-74
2023/02/05 02:11:58;;;;;;;40.50;19.23;;;;;;;;;;5020203;28;20209;-74
2023/02/05 02:14:26;;;;;;;35.33;17.48;;;;;;;;;;5019267;28;20227;-74
2023/02/05 02:16:52;;;;;;;34.00;16.67;;;;;;;;;;5020299;28;20172;-74
2023/02/05 02:19:23;;;;;;;41.22;17.73;;;;;;;;;;5019678;28;20176;-75
2023/02/05 02:21:49;;;;;;;34.63;17.23;;;;;;;;;;5032496;28;20244;-74
2023/02/05 02:24:18;;;;;;;32.13;17.60;;;;;;;;;;5038986;28;20278;-75
2023/02/05 02:26:53;;;;;;;47.25;16.67;;;;;;;;;;5039577;28;20444;-74
2023/02/05 02:29:22;;;;;;;41.88;16.67;;;;;;;;;;5038999;28;20686;-75
2023/02/05 02:31:56;;;;;;;42.03;17.25;;;;;;;;;;5038860;28;20286;-74
2023/02/05 02:34:30;;;;;;;29.92;15.68;;;;;;;;;;5037409;28;20624;-75
2023/02/05 02:37:01;;;;;;;41.13;19.67;;;;;;;;;;5039437;28;20182;-74
2023/02/05 02:39:32;;;;;;;49.20;20.23;;;;;;;;;;5039214;28;20193;-74
2023/02/05 02:42:04;;;;;;;42.80;19.08;;;;;;;;;;5039123;28;20189;-74
2023/02/05 02:44:33;;;;;;;37.22;18.40;;;;;;;;;;5038771;28;20187;-74
2023/02/05 02:47:02;;;;;;;45.35;19.67;;;;;;;;;;5038768;28;20348;-74
2023/02/05 02:49:33;;;;;;;47.28;20.30;;;;;;;;;;5037968;28;20504;-74
2023/02/05 02:52:01;;;;;;;44.25;17.60;;;;;;;;;;5038112;28;20217;-74
2023/02/05 02:54:27;;;;;;;48.40;21.10;;;;;;;;;;5038107;28;20523;-75
2023/02/05 02:56:54;;;;;;;47.05;21.08;;;;;;;;;;5038320;28;20224;-74
2023/02/05 02:59:23;;;;;;;55.42;18.92;;;;;;;;;;5038611;28;20186;-75
2023/02/05 03:01:53;;;;;;;57.88;22.85;;;;;;;;;;5038715;28;20182;-74
2023/02/05 03:04:31;;;;;;;46.55;19.90;;;;;;;;;;5038821;28;20217;-75
2023/02/05 03:07:00;;;;;;;51.70;19.55;;;;;;;;;;5038872;28;20206;-74
2023/02/05 03:09:31;;;;;;;51.42;20.00;;;;;;;;;;5037579;28;20182;-75
2023/02/05 03:11:57;;;;;;;56.30;20.17;;;;;;;;;;5038941;28;20198;-74
2023/02/05 03:14:23;;;;;;;52.65;21.73;;;;;;;;;;5038127;28;20311;-75
2023/02/05 03:16:49;;;;;;;46.70;20.60;;;;;;;;;;5038827;28;20619;-74
2023/02/05 03:19:15;;;;;;;57.28;18.58;;;;;;;;;;5037775;28;20913;-77
2023/02/05 03:21:44;;;;;;;58.93;20.47;;;;;;;;;;5037939;28;20182;-75
2023/02/05 03:24:10;;;;;;;51.72;19.73;;;;;;;;;;5038053;28;20499;-75
2023/02/05 03:26:37;;;;;;;51.43;19.33;;;;;;;;;;5037992;28;20178;-75
2023/02/05 03:29:05;;;;;;;50.70;19.45;;;;;;;;;;5036593;28;20458;-74
2023/02/05 03:31:36;;;;;;;48.17;20.63;;;;;;;;;;5037672;28;20205;-74
2023/02/05 03:34:21;;;;;;;57.08;17.55;;;;;;;;;;5038112;28;20171;-75
2023/02/05 03:37:05;;;;;;;72.30;23.40;;;;;;;;;;5038032;28;20182;-74
2023/02/05 03:39:49;;;;;;;68.55;20.73;;;;;;;;;;5037669;28;20173;-75
2023/02/05 03:42:36;;;;;;;68.93;20.55;;;;;;;;;;5038251;28;20234;-74
2023/02/05 03:45:13;;;;;;;60.10;19.55;;;;;;;;;;5037989;28;20258;-74
2023/02/05 03:47:39;;;;;;;61.08;19.52;;;;;;;;;;5037276;28;20209;-75
2023/02/05 03:50:16;;;;;;;49.20;20.33;;;;;;;;;;5037562;28;20239;-74
2023/02/05 03:52:46;;;;;;;76.70;20.90;;;;;;;;;;5037007;28;20970;-75
2023/02/05 03:55:28;;;;;;;57.50;18.67;;;;;;;;;;5037669;28;20180;-75
2023/02/05 03:58:00;;;;;;;51.40;19.13;;;;;;;;;;5038065;28;20619;-74
2023/02/05 04:00:26;;;;;;;57.13;19.52;;;;;;;;;;5036959;28;20245;-75
2023/02/05 04:02:53;;;;;;;51.33;18.65;;;;;;;;;;5037319;28;20180;-74
2023/02/05 04:05:21;;;;;;;48.58;19.67;;;;;;;;;;5037344;28;20185;-76
2023/02/05 04:07:47;;;;;;;49.78;19.88;;;;;;;;;;5038257;28;20193;-75
2023/02/05 04:10:13;;;;;;;45.53;19.33;;;;;;;;;;5039694;28;20178;-75
2023/02/05 04:12:39;;;;;;;46.80;17.93;;;;;;;;;;5037632;28;20217;-75
2023/02/05 04:15:07;;;;;;;53.07;18.50;;;;;;;;;;5037656;28;20539;-75
2023/02/05 04:17:33;;;;;;;48.85;19.27;;;;;;;;;;5036955;28;20497;-75
2023/02/05 04:19:59;;;;;;;57.50;20.37;;;;;;;;;;5069181;28;20225;-74
2023/02/05 04:22:25;;;;;;;50.70;19.60;;;;;;;;;;5036495;28;20767;-75
2023/02/05 04:24:51;;;;;;;52.17;18.92;;;;;;;;;;5038012;28;20433;-74
2023/02/05 04:27:17;;;;;;;57.90;20.03;;;;;;;;;;5036372;28;20235;-74
2023/02/05 04:29:43;;;;;;;58.10;19.60;;;;;;;;;;5036548;28;20976;-75
2023/02/05 04:32:09;;;;;;;48.03;19.53;;;;;;;;;;5037169;28;20472;-74
2023/02/05 04:34:35;;;;;;;53.07;17.77;;;;;;;;;;5036731;28;20405;-75
2023/02/05 04:37:01;;;;;;;49.58;18.90;;;;;;;;;;5036982;28;20760;-75
2023/02/05 04:39:27;;;;;;;55.67;20.08;;;;;;;;;;5036629;28;20168;-74
2023/02/05 04:41:53;;;;;;;57.92;22.33;;;;;;;;;;5037059;28;20185;-74
2023/02/05 04:44:19;;;;;;;57.03;19.92;;;;;;;;;;5036958;28;20211;-74
2023/02/05 04:46:45;;;;;;;41.13;18.87;;;;;;;;;;5036826;28;20634;-74
2023/02/05 04:49:11;;;;;;;44.45;19.50;;;;;;;;;;5036703;28;20418;-75
2023/02/05 04:51:37;;;;;;;55.33;20.80;;;;;;;;;;5036160;28;20209;-75
2023/02/05 04:54:03;;;;;;;63.63;24.80;;;;;;;;;;5035636;28;20428;-75
2023/02/05 04:56:29;;;;;;;56.00;24.08;;;;;;;;;;5036296;28;20462;-74
2023/02/05 04:58:55;;;;;;;82.03;26.90;;;;;;;;;;5036290;28;20180;-75
2023/02/05 05:01:22;;;;;;;70.60;25.40;;;;;;;;;;5036057;28;20451;-78
2023/02/05 05:03:48;;;;;;;67.60;28.48;;;;;;;;;;5036780;28;20475;-75
2023/02/05 05:06:15;;;;;;;76.03;27.40;;;;;;;;;;5036330;28;20219;-75
2023/02/05 05:08:41;;;;;;;89.07;30.20;;;;;;;;;;5036562;28;20185;-74
2023/02/05 05:11:08;;;;;;;74.00;28.73;;;;;;;;;;5036383;28;20545;-74
2023/02/05 05:13:34;;;;;;;82.82;28.90;;;;;;;;;;5036575;28;20403;-74
2023/02/05 05:16:00;;;;;;;79.00;30.73;;;;;;;;;;5036203;28;20174;-74
2023/02/05 05:18:26;;;;;;;80.85;32.72;;;;;;;;;;5034884;28;20655;-75
2023/02/05 05:20:52;;;;;;;102.78;35.38;;;;;;;;;;5036846;28;20259;-75
2023/02/05 05:23:18;;;;;;;85.17;29.77;;;;;;;;;;5036537;28;20239;-75
2023/02/05 05:25:45;;;;;;;91.03;33.75;;;;;;;;;;5036164;28;20414;-75
2023/02/05 05:28:12;;;;;;;98.90;32.90;;;;;;;;;;5035959;28;20629;-75
2023/02/05 05:30:42;;;;;;;86.88;31.80;;;;;;;;;;5036069;28;20542;-75
2023/02/05 05:33:08;;;;;;;93.80;33.08;;;;;;;;;;5036283;28;20287;-75
2023/02/05 05:35:34;;;;;;;85.20;31.55;;;;;;;;;;5036101;28;20643;-75
2023/02/05 05:38:00;;;;;;;96.87;33.20;;;;;;;;;;5036902;28;20195;-75
2023/02/05 05:45:56;;;;;;;81.10;30.85;;;;;;;;;;5036203;28;20649;-75
2023/02/05 05:48:22;;;;;;;77.30;29.43;;;;;;;;;;5035909;28;20186;-75
2023/02/05 05:50:48;;;;;;;88.05;28.35;;;;;;;;;;5035786;28;20767;-75
2023/02/05 05:53:15;;;;;;;70.30;27.90;;;;;;;;;;5036745;28;20186;-75
2023/02/05 05:55:41;;;;;;;73.65;27.30;;;;;;;;;;5035800;28;20415;-75
2023/02/05 05:58:07;;;;;;;67.07;26.20;;;;;;;;;;5036357;28;20550;-75
2023/02/05 06:00:34;;;;;;;71.50;26.77;;;;;;;;;;5036027;28;20179;-76
2023/02/05 06:02:59;;;;;;;81.03;27.83;;;;;;;;;;5036409;28;20243;-75
2023/02/05 06:05:25;;;;;;;79.57;29.40;;;;;;;;;;5034564;28;20585;-79
2023/02/05 06:07:51;;;;;;;92.80;32.80;;;;;;;;;;5036620;28;20471;-75
2023/02/05 06:10:17;;;;;;;83.93;31.80;;;;;;;;;;5038288;28;20417;-75
2023/02/05 06:12:43;;;;;;;76.00;30.07;;;;;;;;;;5039356;28;20210;-75
2023/02/05 06:15:10;;;;;;;74.65;28.42;;;;;;;;;;5039662;28;20408;-75
2023/02/05 06:17:36;;;;;;;88.10;32.13;;;;;;;;;;5039163;28;20169;-75
2023/02/05 06:20:02;;;;;;;85.33;33.50;;;;;;;;;;5039971;28;20188;-75
2023/02/05 06:22:28;;;;;;;88.53;32.17;;;;;;;;;;5039360;28;20416;-76
2023/02/05 06:24:54;;;;;;;92.50;34.90;;;;;;;;;;5039515;28;20431;-75
2023/02/05 06:27:20;;;;;;;96.93;36.25;;;;;;;;;;5039481;28;20444;-75
2023/02/05 06:29:46;;;;;;;100.20;38.72;;;;;;;;;;5039509;28;20236;-75
2023/02/05 06:32:12;;;;;;;96.93;34.73;;;;;;;;;;5024175;28;20218;-75
2023/02/05 06:34:38;;;;;;;92.60;34.55;;;;;;;;;;5018961;28;20823;-75
2023/02/05 06:37:03;;;;;;;106.03;35.07;;;;;;;;;;5020106;28;20186;-75
2023/02/05 06:39:29;;;;;;;96.27;34.57;;;;;;;;;;5019456;28;20414;-76
2023/02/05 06:41:55;;;;;;;93.97;34.53;;;;;;;;;;5018195;28;20477;-75
2023/02/05 06:44:23;;;;;;;90.87;37.03;;;;;;;;;;5019675;28;20421;-75
2023/02/05 06:46:49;;;;;;;98.28;34.15;;;;;;;;;;5018028;28;20413;-75
2023/02/05 06:49:15;;;;;;;89.68;34.95;;;;;;;;;;5019252;28;20187;-75
2023/02/05 06:51:41;;;;;;;77.45;31.45;;;;;;;;;;5018393;28;20205;-75
2023/02/05 06:54:07;;;;;;;83.23;33.67;;;;;;;;;;5017918;28;20183;-75
2023/02/05 06:56:33;;;;;;;85.45;34.40;;;;;;;;;;5019009;28;20552;-75
2023/02/05 06:58:59;;;;;;;71.93;31.77;;;;;;;;;;5019288;28;20213;-75
2023/02/05 07:01:24;;;;;;;78.73;32.90;;;;;;;;;;5019428;28;20795;-75
2023/02/05 07:03:54;;;;;;;72.30;30.13;;;;;;;;;;5018756;28;20444;-75
2023/02/05 07:06:22;;;;;;;86.50;34.17;;;;;;;;;;5019322;28;20476;-75
2023/02/05 07:08:48;;;;;;;84.28;34.83;;;;;;;;;;5017179;28;20212;-75
2023/02/05 07:11:14;;;;;;;79.82;32.35;;;;;;;;;;5018494;28;20246;-75
2023/02/05 07:13:40;;;;;;;74.93;33.13;;;;;;;;;;5018229;28;20171;-75
2023/02/05 07:16:07;;;;;;;80.80;32.35;;;;;;;;;;5018674;28;20272;-75
2023/02/05 07:18:33;;;;;;;65.03;31.13;;;;;;;;;;5018841;28;20183;-75
2023/02/05 07:20:59;;;;;;;70.03;30.90;;;;;;;;;;5017653;28;20233;-75
2023/02/05 07:23:25;;;;;;;70.22;32.10;;;;;;;;;;5018133;28;20530;-75
2023/02/05 07:25:51;;;;;;;75.03;33.03;;;;;;;;;;5018187;28;20235;-75
2023/02/05 07:28:17;;;;;;;73.75;33.47;;;;;;;;;;5000996;28;20539;-75
2023/02/05 07:30:43;;;;;;;69.60;33.63;;;;;;;;;;5018247;28;20175;-75
2023/02/05 07:33:09;;;;;;;75.18;32.90;;;;;;;;;;5018136;28;20461;-75
2023/02/05 07:35:37;;;;;;;78.50;32.70;;;;;;;;;;5018451;28;20193;-75
2023/02/05 07:38:03;;;;;;;68.18;32.63;;;;;;;;;;5018037;28;20176;-75
2023/02/05 07:40:29;;;;;;;68.75;33.45;;;;;;;;;;5018173;28;20195;-75
2023/02/05 07:42:55;;;;;;;72.77;32.50;;;;;;;;;;5018209;28;20534;-75
2023/02/05 07:45:21;;;;;;;74.17;31.70;;;;;;;;;;5017184;28;20510;-75
2023/02/05 07:47:50;;;;;;;74.47;33.63;;;;;;;;;;5000930;28;20427;-76
2023/02/05 07:50:16;;;;;;;60.95;31.98;;;;;;;;;;5018969;28;20259;-76
2023/02/05 07:52:42;;;;;;;70.10;33.78;;;;;;;;;;5017724;28;20207;-76
2023/02/05 07:55:09;;;;;;;75.82;33.60;;;;;;;;;;5017930;28;20178;-76
2023/02/05 07:57:35;;;;;;;73.43;35.58;;;;;;;;;;5023266;28;20227;-76
2023/02/05 08:00:00;;;;;;;68.63;34.97;;;;;;;;;;5027129;28;20229;-75
2023/02/05 08:02:26;;;;;;;76.00;40.17;;;;;;;;;;5018392;28;20508;-75
2023/02/05 08:04:52;;;;;;;79.77;39.17;;;;;;;;;;5017580;28;20420;-76
2023/02/05 08:07:18;;;;;;;66.70;35.47;;;;;;;;;;5017618;28;20873;-75
2023/02/05 08:09:44;;;;;;;91.03;42.60;;;;;;;;;;5016106;28;20440;-75
2023/02/05 08:12:10;;;;;;;73.20;36.30;;;;;;;;;;5017935;28;20509;-75
2023/02/05 08:14:36;;;;;;;79.72;38.85;;;;;;;;;;5017468;28;20406;-76
2023/02/05 08:17:05;;;;;;;72.00;35.70;;;;;;;;;;5016444;28;20189;-85
2023/02/05 08:19:31;;;;;;;72.45;37.72;;;;;;;;;;5013986;28;20259;-84
2023/02/05 08:21:56;;;;;;;72.82;37.28;;;;;;;;;;5017265;28;20183;-75
2023/02/05 08:24:22;;;;;;;67.60;34.83;;;;;;;;;;5017710;28;20222;-75
2023/02/05 08:26:48;;;;;;;57.20;28.70;;;;;;;;;;5017281;28;20896;-76
2023/02/05 08:29:14;;;;;;;61.13;32.83;;;;;;;;;;5017358;28;20845;-75
2023/02/05 08:31:40;;;;;;;57.25;26.98;;;;;;;;;;5017002;28;20205;-75
2023/02/05 08:34:06;;;;;;;62.00;32.20;;;;;;;;;;5016370;28;20242;-75
2023/02/05 08:36:32;;;;;;;75.07;35.63;;;;;;;;;;5017762;28;20420;-75
2023/02/05 08:38:58;;;;;;;62.10;31.20;;;;;;;;;;5017223;28;20506;-75
2023/02/05 08:41:24;;;;;;;50.57;31.57;;;;;;;;;;5015988;28;20422;-76
2023/02/05 08:43:50;;;;;;;50.87;25.20;;;;;;;;;;5017557;28;20445;-76
2023/02/05 08:46:19;;;;;;;50.15;27.73;;;;;;;;;;5016683;28;20422;-75
2023/02/05 08:48:45;;;;;;;49.80;28.70;;;;;;;;;;5017515;28;20626;-75
2023/02/05 08:51:12;;;;;;;50.78;29.73;;;;;;;;;;5017984;28;20193;-75
2023/02/05 08:53:39;;;;;;;30.92;17.73;;;;;;;;;;5016982;28;20182;-76
2023/02/05 08:56:05;;;;;;;38.85;24.35;;;;;;;;;;5017480;28;20235;-75
2023/02/05 08:58:31;;;;;;;23.08;15.90;;;;;;;;;;5016174;28;20703;-75
2023/02/05 09:01:04;;;;;;;21.25;11.90;;;;;;;;;;5017049;28;20182;-76
2023/02/05 09:03:30;;;;;;;18.05;8.20;;;;;;;;;;5016697;28;20186;-76
2023/02/05 09:05:57;;;;;;;10.95;6.95;;;;;;;;;;5015470;28;20177;-76
2023/02/05 09:08:23;;;;;;;6.20;4.00;;;;;;;;;;5016338;28;20307;-76
2023/02/05 09:10:49;;;;;;;6.25;3.75;;;;;;;;;;5015819;28;20190;-75
2023/02/05 09:13:15;;;;;;;13.75;9.30;;;;;;;;;;5017173;28;20253;-76
2023/02/05 09:15:42;;;;;;;6.97;4.93;;;;;;;;;;5017188;28;20233;-76
2023/02/05 09:18:08;;;;;;;6.25;3.70;;;;;;;;;;5018059;28;20214;-75
2023/02/05 09:20:34;;;;;;;8.50;3.42;;;;;;;;;;5016402;28;20180;-76
2023/02/05 09:23:00;;;;;;;5.10;3.93;;;;;;;;;;5017124;28;20192;-76
2023/02/05 09:25:28;;;;;;;8.27;3.77;;;;;;;;;;5016770;28;20493;-75
2023/02/05 09:27:54;;;;;;;8.55;3.58;;;;;;;;;;5016062;28;20410;-75
2023/02/05 09:30:20;;;;;;;9.13;3.50;;;;;;;;;;5017081;28;20185;-75
2023/02/05 09:32:46;;;;;;;11.03;2.70;;;;;;;;;;5016939;28;20531;-75
2023/02/05 09:35:12;;;;;;;6.90;3.47;;;;;;;;;;5016895;28;20908;-75
2023/02/05 09:37:38;;;;;;;8.00;3.17;;;;;;;;;;5015484;28;20273;-76
2023/02/05 09:40:04;;;;;;;6.95;2.53;;;;;;;;;;5017446;28;20764;-75
2023/02/05 09:42:30;;;;;;;5.65;2.22;;;;;;;;;;5016699;28;20513;-75
2023/02/05 09:45:02;;;;;;;4.40;2.17;;;;;;;;;;5017841;28;20229;-75
2023/02/05 09:47:35;;;;;;;3.70;3.40;;;;;;;;;;5021011;28;20493;-75
2023/02/05 09:50:08;;;;;;;8.95;2.00;;;;;;;;;;5020197;28;20262;-75
2023/02/05 09:52:38;;;;;;;5.75;2.03;;;;;;;;;;5029960;28;20253;-75
2023/02/05 09:55:07;;;;;;;4.85;1.88;;;;;;;;;;5029065;28;20179;-75
2023/02/05 09:57:38;;;;;;;3.90;2.10;;;;;;;;;;5023467;28;20222;-75
2023/02/05 10:00:11;;;;;;;4.57;1.98;;;;;;;;;;5020338;28;20188;-75
2023/02/05 10:02:43;;;;;;;4.10;2.20;;;;;;;;;;5020815;28;20191;-75
2023/02/05 10:05:13;;;;;;;8.20;1.60;;;;;;;;;;5020821;28;20155;-75
2023/02/05 10:07:58;;;;;;;4.82;1.95;;;;;;;;;;5019011;28;20218;-76
2023/02/05 10:10:25;;;;;;;6.60;1.70;;;;;;;;;;5019402;28;20185;-75
2023/02/05 10:13:10;;;;;;;2.35;0.80;;;;;;;;;;5018892;28;20623;-75
2023/02/05 10:15:42;;;;;;;4.65;1.60;;;;;;;;;;5020217;28;20177;-75
2023/02/05 10:18:08;;;;;;;1.13;0.80;;;;;;;;;;5034142;28;20201;-76
2023/02/05 10:20:34;;;;;;;9.97;2.23;;;;;;;;;;5039870;28;20232;-75
2023/02/05 10:23:00;;;;;;;7.10;1.75;;;;;;;;;;5038536;28;20409;-75
2023/02/05 10:25:34;;;;;;;7.50;1.58;;;;;;;;;;5038164;28;20174;-76
2023/02/05 10:28:05;;;;;;;4.85;1.35;;;;;;;;;;5039069;28;20250;-75
2023/02/05 10:30:44;;;;;;;3.10;2.05;;;;;;;;;;5039795;28;20197;-76
2023/02/05 10:33:30;;;;;;;7.22;1.90;;;;;;;;;;5039950;28;20221;-76
2023/02/05 10:35:59;;;;;;;5.75;1.83;;;;;;;;;;5039939;28;20186;-76
2023/02/05 10:38:26;;;;;;;8.02;2.05;;;;;;;;;;5039767;28;20174;-76
2023/02/05 10:40:54;;;;;;;7.43;1.25;;;;;;;;;;5039652;28;20574;-76
2023/02/05 10:43:36;;;;;;;3.55;2.22;;;;;;;;;;5039524;28;20182;-75
2023/02/05 10:46:02;;;;;;;5.45;1.73;;;;;;;;;;5032087;28;20182;-75
2023/02/05 10:48:34;;;;;;;4.15;1.63;;;;;;;;;;5061625;28;20177;-75
2023/02/05 10:51:01;;;;;;;10.10;1.80;;;;;;;;;;5019182;28;20179;-75
2023/02/05 10:53:28;;;;;;;5.97;1.45;;;;;;;;;;5023693;28;20174;-75
2023/02/05 10:55:54;;;;;;;4.32;1.48;;;;;;;;;;5028499;28;20261;-75
2023/02/05 10:58:39;;;;;;;4.75;1.40;;;;;;;;;;5045868;28;20524;-75
2023/02/05 11:01:12;;;;;;;8.65;1.80;;;;;;;;;;5038663;28;20185;-76
2023/02/05 11:03:39;;;;;;;4.40;2.35;;;;;;;;;;5039536;28;20558;-75
2023/02/05 11:06:08;;;;;;;5.75;1.98;;;;;;;;;;5038658;28;20181;-75
2023/02/05 11:08:34;;;;;;;9.95;2.38;;;;;;;;;;5039390;28;20170;-75
2023/02/05 11:11:00;;;;;;;9.32;1.98;;;;;;;;;;5041129;28;20175;-76
2023/02/05 11:13:26;;;;;;;16.48;2.70;;;;;;;;;;5039115;28;20177;-76
2023/02/05 11:16:02;;;;;;;12.02;3.20;;;;;;;;;;5038606;28;20514;-76
2023/02/05 11:18:29;;;;;;;8.32;2.05;;;;;;;;;;5039239;28;20183;-76
2023/02/05 11:20:59;;;;;;;6.30;1.55;;;;;;;;;;5038682;28;20216;-77
2023/02/05 11:23:26;;;;;;;11.57;2.60;;;;;;;;;;5037698;28;20212;-74
2023/02/05 11:25:54;;;;;;;9.95;2.15;;;;;;;;;;5037980;28;20174;-75
2023/02/05 11:28:23;;;;;;;7.18;2.20;;;;;;;;;;5038466;28;20614;-75
2023/02/05 11:30:49;;;;;;;7.30;1.65;;;;;;;;;;5037713;28;20642;-76
2023/02/05 11:33:21;;;;;;;3.87;1.60;;;;;;;;;;5038089;28;20202;-75
2023/02/05 11:36:01;;;;;;;9.63;2.03;;;;;;;;;;5036190;28;20425;-77
2023/02/05 11:38:35;;;;;;;8.68;2.28;;;;;;;;;;5035999;28;20217;-85
2023/02/05 11:41:05;;;;;;;14.52;2.55;;;;;;;;;;5036728;28;20166;-84
2023/02/05 11:43:46;;;;;;;12.60;3.47;;;;;;;;;;5036521;28;20639;-77
2023/02/05 11:46:15;;;;;;;7.82;2.95;;;;;;;;;;5038079;28;20170;-76
2023/02/05 11:48:53;;;;;;;18.50;3.22;;;;;;;;;;5037956;28;20186;-76
2023/02/05 11:51:28;;;;;;;16.88;3.08;;;;;;;;;;5037480;28;20575;-77
2023/02/05 11:53:55;;;;;;;17.02;2.80;;;;;;;;;;5037304;28;20163;-77
2023/02/05 11:56:22;;;;;;;14.88;2.65;;;;;;;;;;5037555;28;20308;-76
2023/02/05 11:59:02;;;;;;;8.63;2.30;;;;;;;;;;5037382;28;20180;-77
2023/02/05 12:01:31;;;;;;;11.98;3.15;;;;;;;;;;5037100;28;20187;-77
2023/02/05 12:04:17;;;;;;;11.60;2.10;;;;;;;;;;5038116;28;20170;-77
2023/02/05 12:07:10;;;;;;;21.55;4.32;;;;;;;;;;5036896;28;20174;-77
2023/02/05 12:09:36;;;;;;;12.77;2.75;;;;;;;;;;5037721;28;20173;-77
2023/02/05 12:12:15;;;;;;;15.07;2.75;;;;;;;;;;5036897;28;20206;-77
2023/02/05 12:14:44;;;;;;;13.13;3.03;;;;;;;;;;5037713;28;20530;-76
2023/02/05 12:17:28;;;;;;;17.60;2.55;;;;;;;;;;5035333;28;20273;-77
2023/02/05 12:20:03;;;;;;;4.47;2.30;;;;;;;;;;5037330;28;20166;-77
2023/02/05 12:22:48;;;;;;;6.25;2.28;;;;;;;;;;5037446;28;20224;-77
2023/02/05 12:25:14;;;;;;;14.75;3.10;;;;;;;;;;5036104;28;20246;-76
2023/02/05 12:27:40;;;;;;;14.75;2.95;;;;;;;;;;5035889;28;20646;-77
2023/02/05 12:30:12;;;;;;;10.83;2.77;;;;;;;;;;5036724;28;20181;-77
2023/02/05 12:32:44;;;;;;;13.95;3.70;;;;;;;;;;5036929;28;20544;-76
2023/02/05 12:35:16;;;;;;;14.32;3.25;;;;;;;;;;5035411;28;20187;-76
2023/02/05 12:37:51;;;;;;;19.75;3.50;;;;;;;;;;5035978;28;20548;-76
2023/02/05 12:40:20;;;;;;;11.82;3.50;;;;;;;;;;5037226;28;20273;-77
2023/02/05 12:42:56;;;;;;;8.73;4.03;;;;;;;;;;5035910;28;20182;-76
2023/02/05 12:45:28;;;;;;;10.45;4.07;;;;;;;;;;5037230;28;20170;-76
2023/02/05 12:48:03;;;;;;;10.32;4.13;;;;;;;;;;5036311;28;20560;-76
2023/02/05 12:50:44;;;;;;;8.38;3.83;;;;;;;;;;5036492;28;20585;-77
2023/02/05 12:53:10;;;;;;;13.80;4.88;;;;;;;;;;5037271;28;20208;-76
2023/02/05 12:55:43;;;;;;;14.27;6.10;;;;;;;;;;5035976;28;20174;-76
2023/02/05 12:58:11;;;;;;;15.10;5.40;;;;;;;;;;5036788;28;20424;-76
2023/02/05 13:00:47;;;;;;;9.73;3.58;;;;;;;;;;5036835;28;20196;-76
2023/02/05 13:03:13;;;;;;;22.98;3.60;;;;;;;;;;5036131;28;20521;-76
2023/02/05 13:05:47;;;;;;;10.23;3.47;;;;;;;;;;5036146;28;20257;-76
2023/02/05 13:08:17;;;;;;;20.27;4.13;;;;;;;;;;5035981;28;20412;-79
2023/02/05 13:11:02;;;;;;;11.23;2.70;;;;;;;;;;5034603;28;20171;-79
2023/02/05 13:13:31;;;;;;;11.32;3.38;;;;;;;;;;5035217;28;20191;-80
2023/02/05 13:16:24;;;;;;;10.70;3.78;;;;;;;;;;5033115;28;20174;-79
2023/02/05 13:18:57;;;;;;;14.70;2.85;;;;;;;;;;5033800;28;20190;-80
2023/02/05 13:29:55;;;;;;;9.48;2.53;;;;;;;;;;5038899;28;20624;-79
2023/02/05 13:32:24;;;;;;;9.68;3.03;;;;;;;;;;5071357;28;20206;-78
2023/02/05 13:34:53;;;;;;;7.25;3.38;;;;;;;;;;5039370;28;20201;-78
2023/02/05 13:37:38;;;;;;;9.85;3.00;;;;;;;;;;5039367;28;20196;-78
2023/02/05 13:40:04;;;;;;;10.82;3.38;;;;;;;;;;5039260;28;20184;-78
2023/02/05 13:42:44;;;;;;;14.70;2.93;;;;;;;;;;5039055;28;20519;-79
2023/02/05 13:45:28;;;;;;;14.45;4.40;;;;;;;;;;5038661;28;20390;-78
2023/02/05 13:48:03;;;;;;;10.90;4.05;;;;;;;;;;5038784;28;20183;-78
2023/02/05 13:50:32;;;;;;;10.00;4.57;;;;;;;;;;5038989;28;20300;-79
2023/02/05 13:53:08;;;;;;;6.00;3.67;;;;;;;;;;5038638;28;20212;-79
2023/02/05 13:55:43;;;;;;;9.55;3.78;;;;;;;;;;5038367;28;20179;-78
2023/02/05 13:58:11;;;;;;;7.18;2.33;;;;;;;;;;5038177;28;20256;-79
2023/02/05 14:00:39;;;;;;;6.00;2.40;;;;;;;;;;5038471;28;20174;-78
2023/02/05 14:03:07;;;;;;;10.00;2.50;;;;;;;;;;5037356;28;20180;-78
2023/02/05 14:05:41;;;;;;;4.95;2.20;;;;;;;;;;5038838;28;20174;-78
2023/02/05 14:08:18;;;;;;;5.53;2.42;;;;;;;;;;5037980;28;20181;-78
2023/02/05 14:10:45;;;;;;;5.57;2.40;;;;;;;;;;5039067;28;20172;-78
2023/02/05 14:13:21;;;;;;;7.50;2.30;;;;;;;;;;5037232;28;20210;-78
2023/02/05 14:15:47;;;;;;;14.07;3.38;;;;;;;;;;5039303;28;20285;-78
2023/02/05 14:18:33;;;;;;;11.30;2.90;;;;;;;;;;5033377;28;20203;-77
2023/02/05 14:20:59;;;;;;;7.47;2.10;;;;;;;;;;5021328;28;20186;-78
2023/02/05 14:23:51;;;;;;;3.72;2.42;;;;;;;;;;5020633;28;20198;-77
2023/02/05 14:26:37;;;;;;;8.73;2.53;;;;;;;;;;5036540;28;20182;-78
2023/02/05 14:29:03;;;;;;;3.88;2.28;;;;;;;;;;5037048;28;20182;-77
2023/02/05 14:31:45;;;;;;;7.80;2.53;;;;;;;;;;5037943;28;20206;-78
2023/02/05 14:34:40;;;;;;;8.93;3.00;;;;;;;;;;5041804;28;20654;-78
2023/02/05 14:37:21;;;;;;;6.68;2.15;;;;;;;;;;5013086;28;20288;-77
2023/02/05 14:39:47;;;;;;;7.95;2.10;;;;;;;;;;5018841;28;20249;-78
2023/02/05 14:42:18;;;;;;;9.45;2.00;;;;;;;;;;5000769;28;20184;-78
2023/02/05 14:44:44;;;;;;;7.93;2.75;;;;;;;;;;5018677;28;20159;-77
2023/02/05 14:47:25;;;;;;;11.18;1.80;;;;;;;;;;5017283;28;20185;-78
2023/02/05 14:49:52;;;;;;;8.38;2.97;;;;;;;;;;5036594;28;20265;-77
2023/02/05 14:52:22;;;;;;;7.07;2.38;;;;;;;;;;5037114;28;20256;-77